createdAt,value
2022-08-17T00:02:25.462Z,98197.79
2022-08-17T00:04:54.566Z,98200.86
2022-08-17T00:07:21.409Z,98198.38
2022-08-17T00:09:48.461Z,98195.23
2022-08-17T00:12:41.742Z,98195.77
2022-08-17T00:15:02.318Z,98196.67
2022-08-17T00:17:29.506Z,98196.31
2022-08-17T00:19:56.408Z,98195.61
2022-08-17T00:22:32.815Z,98198.85
2022-08-17T00:25:08.742Z,98198.61
2022-08-17T00:27:36.495Z,98198.50
2022-08-17T00:30:07.562Z,98203.14
2022-08-17T00:33:23.470Z,98204.52
2022-08-17T00:35:29.815Z,98204.85
2022-08-17T00:37:56.941Z,98205.46
2022-08-17T00:40:24.803Z,98206.08
2022-08-17T00:42:52.983Z,98205.48
2022-08-17T00:45:20.241Z,98210.21
2022-08-17T00:47:47.485Z,98209.59
2022-08-17T00:50:15.864Z,98209.90
2022-08-17T00:52:54.388Z,98209.01
2022-08-17T00:55:22.202Z,98206.27
2022-08-17T00:57:55.182Z,98208.16
2022-08-17T01:00:29.349Z,98207.20
2022-08-17T01:03:08.280Z,98207.80
2022-08-17T01:05:37.913Z,98207.58
2022-08-17T01:08:12.836Z,98207.63
2022-08-17T01:10:59.917Z,98204.72
2022-08-17T01:13:49.869Z,98206.38
2022-08-17T01:16:36.863Z,98203.25
2022-08-17T01:19:19.655Z,98198.09
2022-08-17T01:22:11.170Z,98198.82
2022-08-17T01:24:47.254Z,98200.16
2022-08-17T01:27:14.479Z,98199.40
2022-08-17T01:29:45.006Z,98200.16
2022-08-17T01:32:12.793Z,98199.01
2022-08-17T01:34:43.410Z,98195.69
2022-08-17T01:37:13.831Z,98194.95
2022-08-17T01:39:43.775Z,98193.81
2022-08-17T01:42:32.604Z,98194.09
2022-08-17T01:45:04.282Z,98192.50
2022-08-17T01:47:31.951Z,98192.60
2022-08-17T01:50:11.894Z,98193.85
2022-08-17T01:52:39.478Z,98195.88
2022-08-17T01:55:07.304Z,98197.09
2022-08-17T01:57:34.649Z,98194.23
2022-08-17T02:00:01.698Z,98199.94
2022-08-17T02:02:38.373Z,98200.44
2022-08-17T02:05:06.550Z,98201.48
2022-08-17T02:08:00.586Z,98198.85
2022-08-17T02:10:34.051Z,98195.77
2022-08-17T02:13:02.347Z,98202.83
2022-08-17T02:15:29.879Z,98198.23
2022-08-17T02:17:56.907Z,98204.64
2022-08-17T02:20:42.244Z,98203.80
2022-08-17T02:23:11.333Z,98206.80
2022-08-17T02:25:38.938Z,98207.96
2022-08-17T02:28:05.989Z,98210.80
2022-08-17T02:30:59.370Z,98211.54
2022-08-17T02:33:21.511Z,98210.42
2022-08-17T02:35:48.310Z,98211.28
2022-08-17T02:38:15.169Z,98210.46
2022-08-17T02:40:41.866Z,98211.41
2022-08-17T02:43:08.984Z,98212.22
2022-08-17T02:45:36.340Z,98215.02
2022-08-17T02:48:04.293Z,98212.13
2022-08-17T02:50:31.227Z,98214.29
2022-08-17T02:53:02.553Z,98212.45
2022-08-17T02:55:37.711Z,98212.79
2022-08-17T02:58:04.655Z,98214.87
2022-08-17T03:00:34.193Z,98211.73
2022-08-17T03:03:02.245Z,98212.70
2022-08-17T03:05:31.025Z,98214.67
2022-08-17T03:07:58.375Z,98219.48
2022-08-17T03:10:25.527Z,98215.73
2022-08-17T03:12:52.704Z,98213.97
2022-08-17T03:15:25.618Z,98209.25
2022-08-17T03:17:53.835Z,98209.67
2022-08-17T03:20:20.882Z,98210.27
2022-08-17T03:22:53.588Z,98211.20
2022-08-17T03:25:24.399Z,98207.20
2022-08-17T03:27:51.587Z,98206.60
2022-08-17T03:30:18.714Z,98207.94
2022-08-17T03:32:49.140Z,98201.38
2022-08-17T03:35:17.963Z,98201.98
2022-08-17T03:37:46.098Z,98204.11
2022-08-17T03:40:13.501Z,98204.06
2022-08-17T03:42:40.933Z,98205.64
2022-08-17T03:45:10.720Z,98205.15
2022-08-17T03:47:57.026Z,98208.77
2022-08-17T03:50:43.105Z,98209.96
2022-08-17T03:53:31.151Z,98215.94
2022-08-17T03:56:20.924Z,98217.95
2022-08-17T03:58:48.175Z,98225.00
2022-08-17T04:01:15.483Z,98223.99
2022-08-17T04:03:42.657Z,98221.48
2022-08-17T04:06:09.590Z,98225.46
2022-08-17T04:08:36.979Z,98228.63
2022-08-17T04:11:04.130Z,98234.34
2022-08-17T04:13:31.409Z,98230.48
2022-08-17T04:15:59.560Z,98231.70
2022-08-17T04:18:26.708Z,98232.55
2022-08-17T04:20:53.781Z,98238.70
2022-08-17T04:23:20.699Z,98231.27
2022-08-17T04:25:49.797Z,98235.83
2022-08-17T04:28:17.868Z,98234.42
2022-08-17T04:30:45.363Z,98236.37
2022-08-17T04:33:14.965Z,98240.77
2022-08-17T04:35:45.152Z,98236.66
2022-08-17T04:38:14.785Z,98235.98
2022-08-17T04:41:00.752Z,98231.40
2022-08-17T04:43:28.315Z,98231.77
2022-08-17T04:46:00.375Z,98230.23
2022-08-17T04:48:36.466Z,98229.63
2022-08-17T04:51:06.764Z,98226.18
2022-08-17T04:53:33.603Z,98227.08
2022-08-17T04:56:00.546Z,98228.55
2022-08-17T04:58:27.598Z,98226.51
2022-08-17T05:00:54.786Z,98224.66
2022-08-17T05:03:21.616Z,98225.63
2022-08-17T05:05:51.203Z,98227.14
2022-08-17T05:08:19.570Z,98229.41
2022-08-17T05:10:46.630Z,98227.64
2022-08-17T05:13:22.063Z,98226.09
2022-08-17T05:15:54.434Z,98231.73
2022-08-17T05:18:21.818Z,98230.23
2022-08-17T05:20:52.486Z,98231.48
2022-08-17T05:23:21.110Z,98231.32
2022-08-17T05:25:50.341Z,98234.77
2022-08-17T05:28:18.793Z,98237.19
2022-08-17T05:30:51.883Z,98239.93
2022-08-17T05:33:21.064Z,98238.59
2022-08-17T05:35:49.688Z,98237.31
2022-08-17T05:38:17.832Z,98238.89
2022-08-17T05:40:45.186Z,98240.25
2022-08-17T05:43:16.463Z,98235.75
2022-08-17T05:45:59.363Z,98235.83
2022-08-17T05:48:39.152Z,98238.10
2022-08-17T05:51:33.382Z,98244.05
2022-08-17T05:54:23.679Z,98242.47
2022-08-17T05:57:07.754Z,98236.29
2022-08-17T05:59:48.285Z,98242.35
2022-08-17T06:02:29.359Z,98245.13
2022-08-17T06:05:17.754Z,98242.40
2022-08-17T06:07:53.663Z,98240.23
2022-08-17T06:10:31.875Z,98241.94
2022-08-17T06:13:01.848Z,98236.62
2022-08-17T06:15:29.040Z,98242.49
2022-08-17T06:18:01.751Z,98247.22
2022-08-17T06:20:32.348Z,98249.63
2022-08-17T07:12:37.947Z,98270.79
2022-08-17T07:15:26.723Z,98275.20
2022-08-17T07:17:53.584Z,98277.58
2022-08-17T07:20:22.275Z,98276.45
2022-08-17T07:23:04.373Z,98278.79
2022-08-17T07:25:31.625Z,98279.63
2022-08-17T07:28:00.653Z,98284.94
2022-08-17T07:30:45.789Z,98291.11
2022-08-17T07:33:26.300Z,98296.42
2022-08-17T07:35:53.302Z,98302.31
2022-08-17T07:38:25.259Z,98306.67
2022-08-17T07:40:57.334Z,98311.36
2022-08-17T07:43:37.637Z,98308.08
2022-08-17T07:46:29.721Z,98304.63
2022-08-17T07:49:15.920Z,98304.19
2022-08-17T07:51:42.714Z,98307.91
2022-08-17T07:54:21.026Z,98306.24
2022-08-17T07:56:47.927Z,98304.54
2022-08-17T07:59:16.497Z,98301.06
2022-08-17T08:02:26.479Z,98298.39
2022-08-17T08:05:06.745Z,98294.48
2022-08-17T08:07:49.866Z,98296.34
2022-08-17T08:10:35.317Z,98293.77
2022-08-17T08:13:12.264Z,98293.23
2022-08-17T08:15:54.313Z,98295.56
2022-08-17T08:18:53.871Z,98296.09
2022-08-17T08:21:44.222Z,98296.60
2022-08-17T08:24:36.351Z,98302.95
2022-08-17T08:27:06.861Z,98306.30
2022-08-17T08:29:52.136Z,98301.67
2022-08-17T08:32:37.731Z,98303.95
2022-08-17T08:35:13.496Z,98308.87
2022-08-17T08:38:07.989Z,98313.06
2022-08-17T08:40:38.401Z,98315.45
2022-08-17T08:43:17.520Z,98316.41
2022-08-17T08:46:24.322Z,98317.45
2022-08-17T08:49:59.130Z,98323.42
2022-08-17T08:52:21.883Z,98326.64
2022-08-17T08:54:55.483Z,98325.52
2022-08-17T08:57:34.381Z,98328.25
2022-08-17T09:07:05.326Z,98329.95
2022-08-17T09:09:46.162Z,98329.55
2022-08-17T09:12:41.544Z,98331.95
2022-08-17T09:15:19.633Z,98338.34
2022-08-17T09:18:14.901Z,98338.80
2022-08-17T09:20:50.491Z,98343.42
2022-08-17T09:23:31.980Z,98341.40
2022-08-17T09:26:17.053Z,98343.72
2022-08-17T09:28:46.255Z,98346.43
2022-08-17T09:31:19.711Z,98346.64
2022-08-17T09:33:47.899Z,98346.73
2022-08-17T09:36:37.992Z,98351.20
2022-08-17T09:39:13.435Z,98349.36
2022-08-17T09:41:58.362Z,98348.64
2022-08-17T09:44:39.481Z,98352.35
2022-08-17T09:47:18.295Z,98348.34
2022-08-17T09:49:48.729Z,98347.56
2022-08-17T09:52:17.842Z,98347.62
2022-08-17T09:54:45.691Z,98347.83
2022-08-17T09:57:31.364Z,98348.09
2022-08-17T10:00:11.912Z,98347.98
2022-08-17T10:02:53.008Z,98347.71
2022-08-17T10:05:26.852Z,98347.10
2022-08-17T10:08:27.250Z,98344.46
2022-08-17T10:11:50.395Z,98341.77
2022-08-17T10:14:44.506Z,98339.73
2022-08-17T10:17:32.118Z,98339.38
2022-08-17T10:20:23.027Z,98336.33
2022-08-17T10:23:12.832Z,98337.39
2022-08-17T10:26:06.587Z,98340.61
2022-08-17T10:28:55.542Z,98337.95
2022-08-17T10:31:36.247Z,98338.31
2022-08-17T10:34:28.366Z,98341.17
2022-08-17T10:37:23.150Z,98343.02
2022-08-17T10:40:18.604Z,98349.38
2022-08-17T10:42:51.368Z,98339.86
2022-08-17T10:45:21.354Z,98342.21
2022-08-17T10:48:06.867Z,98343.16
2022-08-17T10:50:43.832Z,98339.96
2022-08-17T10:53:10.865Z,98339.18
2022-08-17T10:55:38.837Z,98337.79
2022-08-17T10:58:21.358Z,98333.48
2022-08-17T11:00:51.485Z,98329.79
2022-08-17T11:03:20.891Z,98332.67
2022-08-17T11:05:55.331Z,98330.19
2022-08-17T11:08:48.135Z,98331.46
2022-08-17T11:11:25.148Z,98327.95
2022-08-17T11:14:21.457Z,98324.65
2022-08-17T11:17:26.693Z,98322.01
2022-08-17T11:20:14.835Z,98319.16
2022-08-17T11:23:09.974Z,98316.94
2022-08-17T11:25:44.594Z,98312.20
2022-08-17T11:28:18.883Z,98312.96
2022-08-17T11:30:54.840Z,98315.40
2022-08-17T11:33:36.890Z,98318.95
2022-08-17T11:36:34.298Z,98311.17
2022-08-17T11:39:24.832Z,98306.95
2022-08-17T11:42:02.187Z,98300.46
2022-08-17T11:44:51.461Z,98305.40
2022-08-17T11:48:26.716Z,98303.94
2022-08-17T11:51:18.018Z,98301.08
2022-08-17T11:53:45.579Z,98297.02
2022-08-17T11:56:48.486Z,98290.27
2022-08-17T11:59:38.760Z,98287.00
2022-08-17T12:02:31.498Z,98280.27
2022-08-17T12:05:12.325Z,98277.63
2022-08-17T12:07:52.333Z,98282.18
2022-08-17T12:10:21.950Z,98280.05
2022-08-17T12:12:50.127Z,98279.48
2022-08-17T12:15:21.357Z,98282.73
2022-08-17T12:17:53.164Z,98284.34
2022-08-17T12:20:33.066Z,98286.50
2022-08-17T12:23:18.137Z,98281.79
2022-08-17T12:26:17.273Z,98283.67
2022-08-17T12:28:46.330Z,98287.95
2022-08-17T12:31:29.261Z,98284.30
2022-08-17T12:33:56.097Z,98276.45
2022-08-17T12:36:25.086Z,98271.50
2022-08-17T12:38:56.813Z,98269.38
2022-08-17T12:41:33.752Z,98268.97
2022-08-17T12:44:34.878Z,98268.45
2022-08-17T12:47:22.390Z,98276.05
2022-08-17T12:49:52.312Z,98284.69
2022-08-17T12:52:19.258Z,98290.80
2022-08-17T12:54:50.815Z,98289.40
2022-08-17T12:57:27.075Z,98292.01
2022-08-17T13:00:00.589Z,98293.63
2022-08-17T13:02:31.217Z,98297.65
2022-08-17T13:04:59.890Z,98298.60
2022-08-17T13:07:29.602Z,98295.08
2022-08-17T13:09:56.751Z,98295.39
2022-08-17T13:12:32.509Z,98294.38
2022-08-17T13:14:59.964Z,98293.36
2022-08-17T13:17:36.265Z,98284.44
2022-08-17T13:20:05.162Z,98276.92
2022-08-17T13:22:32.215Z,98275.31
2022-08-17T13:25:03.487Z,98276.11
2022-08-17T13:27:30.559Z,98286.10
2022-08-17T13:29:59.928Z,98284.20
2022-08-17T13:32:30.697Z,98287.05
2022-08-17T13:35:13.523Z,98278.28
2022-08-17T13:38:00.748Z,98278.08
2022-08-17T13:40:36.411Z,98284.79
2022-08-17T13:43:03.738Z,98293.00
2022-08-17T13:45:43.277Z,98302.04
2022-08-17T13:48:16.788Z,98310.52
2022-08-17T13:50:51.744Z,98319.17
2022-08-17T13:53:32.996Z,98330.52
2022-08-17T13:56:01.691Z,98339.83
2022-08-17T13:58:33.749Z,98344.06
2022-08-17T14:01:32.444Z,98347.16
2022-08-17T14:04:01.564Z,98348.75
2022-08-17T14:06:52.612Z,98350.27
2022-08-17T14:09:21.467Z,98344.63
2022-08-17T14:11:48.680Z,98346.33
2022-08-17T14:14:15.954Z,98337.70
2022-08-17T14:16:43.286Z,98342.11
2022-08-17T14:19:12.325Z,98344.15
2022-08-17T14:21:42.322Z,98345.29
2022-08-17T14:24:20.924Z,98346.54
2022-08-17T14:26:49.193Z,98349.16
2022-08-17T14:29:16.341Z,98350.06
2022-08-17T14:31:43.493Z,98355.45
2022-08-17T14:34:20.900Z,98357.54
2022-08-17T14:36:48.510Z,98356.01
2022-08-17T14:39:16.531Z,98356.05
2022-08-17T14:41:44.381Z,98356.88
2022-08-17T14:44:12.660Z,98358.25
2022-08-17T14:46:40.933Z,98358.79
2022-08-17T14:49:09.925Z,98363.78
2022-08-17T14:51:44.182Z,98375.85
2022-08-17T14:54:33.228Z,98381.86
2022-08-17T14:57:23.840Z,98389.27
2022-08-17T14:59:54.539Z,98396.23
2022-08-17T15:02:29.157Z,98402.54
2022-08-17T15:04:59.086Z,98401.83
2022-08-17T15:07:26.228Z,98403.41
2022-08-17T15:10:01.896Z,98406.30
2022-08-17T15:12:33.303Z,98405.22
2022-08-17T15:15:04.894Z,98407.05
2022-08-17T15:17:44.662Z,98416.21
2022-08-17T15:20:19.727Z,98415.77
2022-08-17T15:22:49.234Z,98419.98
2022-08-17T15:25:16.422Z,98425.79
2022-08-17T15:27:44.066Z,98426.06
2022-08-17T15:30:12.383Z,98426.38
2022-08-17T15:32:48.203Z,98420.71
2022-08-17T15:35:19.560Z,98417.77
2022-08-17T15:38:11.135Z,98411.23
2022-08-17T15:40:45.949Z,98404.88
2022-08-17T15:43:27.614Z,98402.63
2022-08-17T15:46:11.479Z,98397.58
2022-08-17T15:48:43.037Z,98393.39
2022-08-17T15:51:12.462Z,98400.70
2022-08-17T15:53:39.969Z,98400.45
2022-08-17T15:56:07.826Z,98401.95
2022-08-17T15:58:37.538Z,98405.23
2022-08-17T16:01:16.661Z,98403.27
2022-08-17T16:04:06.507Z,98402.35
2022-08-17T16:06:35.265Z,98399.93
2022-08-17T16:09:02.590Z,98397.12
2022-08-17T16:11:29.765Z,98393.77
2022-08-17T16:13:56.899Z,98388.98
2022-08-17T16:16:24.447Z,98390.23
2022-08-17T16:18:54.505Z,98390.77
2022-08-17T16:21:27.153Z,98384.15
2022-08-17T16:24:00.486Z,98389.10
2022-08-17T16:26:28.611Z,98382.34
2022-08-17T16:28:56.281Z,98381.38
2022-08-17T16:31:23.731Z,98383.13
2022-08-17T16:34:16.211Z,98391.61
2022-08-17T16:36:38.714Z,98392.67
2022-08-17T16:39:05.982Z,98392.27
2022-08-17T16:41:45.255Z,98398.17
2022-08-17T16:44:17.613Z,98404.27
2022-08-17T16:46:45.452Z,98403.45
2022-08-17T16:49:31.940Z,98402.48
2022-08-17T16:52:05.950Z,98400.51
2022-08-17T16:54:33.012Z,98396.48
2022-08-17T16:57:00.260Z,98394.27
2022-08-17T16:59:38.715Z,98396.27
2022-08-17T17:02:12.193Z,98397.73
2022-08-17T17:04:45.973Z,98402.34
2022-08-17T17:07:25.323Z,98404.05
2022-08-17T17:09:55.033Z,98396.13
2022-08-17T17:12:32.302Z,98395.64
2022-08-17T17:15:09.908Z,98397.46
2022-08-17T17:17:37.875Z,98390.27
2022-08-17T17:20:10.240Z,98390.17
2022-08-17T17:23:00.028Z,98393.85
2022-08-17T17:25:49.016Z,98391.95
2022-08-17T17:28:24.466Z,98394.20
2022-08-17T17:30:56.312Z,98395.77
2022-08-17T17:33:50.093Z,98396.94
2022-08-17T17:36:34.421Z,98397.20
2022-08-17T17:39:05.299Z,98399.25
2022-08-17T17:41:37.179Z,98398.71
2022-08-17T17:44:11.381Z,98401.91
2022-08-17T17:46:41.864Z,98408.06
2022-08-17T17:49:10.778Z,98408.23
2022-08-17T17:52:08.056Z,98409.51
2022-08-17T17:54:52.560Z,98411.92
2022-08-17T17:57:29.243Z,98415.80
2022-08-17T18:00:16.881Z,98419.43
2022-08-17T18:02:47.367Z,98422.31
2022-08-17T18:05:44.422Z,98426.84
2022-08-17T18:08:32.122Z,98426.91
2022-08-17T18:11:24.346Z,98431.16
2022-08-17T18:14:14.379Z,98434.84
2022-08-17T18:16:43.189Z,98432.93
2022-08-17T18:19:14.564Z,98434.98
2022-08-17T18:21:45.849Z,98427.77
2022-08-17T18:24:13.548Z,98429.57
2022-08-17T18:26:55.085Z,98427.80
2022-08-17T18:29:25.974Z,98430.70
2022-08-17T18:32:32.345Z,98427.05
2022-08-17T18:35:27.243Z,98428.84
2022-08-17T18:38:38.732Z,98426.80
2022-08-17T18:41:25.139Z,98423.92
2022-08-17T18:44:01.266Z,98424.10
2022-08-17T18:46:34.521Z,98423.53
2022-08-17T18:49:02.161Z,98426.71
2022-08-17T18:51:41.373Z,98421.57
2022-08-17T18:54:23.620Z,98428.34
2022-08-17T18:56:54.430Z,98424.51
2022-08-17T18:59:33.315Z,98427.52
2022-08-17T19:02:22.377Z,98427.26
2022-08-17T19:05:11.300Z,98428.30
2022-08-17T19:07:44.511Z,98435.11
2022-08-17T19:10:28.045Z,98435.58
2022-08-17T19:13:12.540Z,98434.64
2022-08-17T19:16:12.127Z,98433.52
2022-08-17T19:19:00.918Z,98433.53
2022-08-17T19:21:37.029Z,98431.67
2022-08-17T19:24:20.744Z,98436.82
2022-08-17T19:27:02.758Z,98440.51
2022-08-17T19:30:14.306Z,98437.35
2022-08-17T19:32:41.761Z,98433.52
2022-08-17T19:35:13.703Z,98430.73
2022-08-17T19:38:12.829Z,98436.98
2022-08-17T19:41:07.388Z,98445.58
2022-08-17T19:43:34.677Z,98436.95
2022-08-17T19:46:18.714Z,98436.15
2022-08-17T19:48:56.034Z,98439.32
2022-08-17T19:51:50.194Z,98441.91
2022-08-17T19:54:24.303Z,98442.26
2022-08-17T19:57:07.836Z,98445.00
2022-08-17T19:59:54.854Z,98441.59
2022-08-17T20:02:48.120Z,98443.34
2022-08-17T20:05:19.881Z,98443.41
2022-08-17T20:08:10.272Z,98441.51
2022-08-17T20:10:55.287Z,98442.14
2022-08-17T20:13:48.647Z,98440.31
2022-08-17T20:16:16.678Z,98440.77
2022-08-17T20:18:49.895Z,98441.35
2022-08-17T20:21:45.784Z,98442.90
2022-08-17T20:24:20.817Z,98444.28
2022-08-17T20:26:55.525Z,98444.49
2022-08-17T20:29:39.534Z,98444.48
2022-08-17T20:32:22.003Z,98445.14
2022-08-17T20:34:50.914Z,98439.84
2022-08-17T20:37:18.142Z,98439.89
2022-08-17T20:39:52.101Z,98435.34
2022-08-17T20:42:22.313Z,98436.76
2022-08-17T20:44:57.614Z,98440.44
2022-08-17T20:47:35.226Z,98445.09
2022-08-17T20:50:05.246Z,98441.34
2022-08-17T20:52:35.401Z,98443.33
2022-08-17T20:55:04.398Z,98440.95
2022-08-17T20:57:31.801Z,98447.04
2022-08-17T21:00:16.775Z,98448.23
2022-08-17T21:02:49.245Z,98446.88
2022-08-17T21:05:34.727Z,98447.66
2022-08-17T21:08:29.643Z,98447.80
2022-08-17T21:10:57.177Z,98450.95
2022-08-17T21:13:37.124Z,98452.70
2022-08-17T21:16:22.611Z,98455.67
2022-08-17T21:18:59.687Z,98453.48
2022-08-17T21:21:59.206Z,98455.14
2022-08-17T21:24:51.338Z,98459.86
2022-08-17T21:27:40.621Z,98458.50
2022-08-17T21:30:09.489Z,98457.52
2022-08-17T21:32:41.822Z,98455.35
2022-08-17T21:35:28.060Z,98456.71
2022-08-17T21:37:58.401Z,98459.65
2022-08-17T21:40:28.473Z,98460.02
2022-08-17T21:42:57.805Z,98462.92
2022-08-17T21:45:26.826Z,98460.88
2022-08-17T21:48:16.272Z,98462.34
2022-08-17T21:50:44.959Z,98462.09
2022-08-17T21:53:14.679Z,98459.29
2022-08-17T21:55:41.614Z,98458.48
2022-08-17T21:58:27.707Z,98453.19
2022-08-17T22:01:24.214Z,98454.08
2022-08-17T22:04:03.920Z,98456.62
2022-08-17T22:06:41.808Z,98456.01
2022-08-17T22:09:08.940Z,98455.27
2022-08-17T22:11:56.575Z,98452.80
2022-08-17T22:14:53.143Z,98449.95
2022-08-17T22:17:36.131Z,98445.69
2022-08-17T22:20:10.141Z,98445.80
2022-08-17T22:23:19.612Z,98441.11
2022-08-17T22:26:01.615Z,98444.64
2022-08-17T22:28:48.324Z,98439.04
2022-08-17T22:31:16.975Z,98438.06
2022-08-17T22:33:48.526Z,98431.16
2022-08-17T22:36:24.076Z,98428.30
2022-08-17T22:39:10.578Z,98421.45
2022-08-17T22:41:50.533Z,98419.43
2022-08-17T22:44:17.582Z,98417.11
2022-08-17T22:47:14.067Z,98420.41
2022-08-17T22:49:54.663Z,98421.14
2022-08-17T22:52:34.947Z,98425.56
2022-08-17T22:55:34.338Z,98423.34
2022-08-17T22:58:31.412Z,98417.95
2022-08-17T23:01:29.364Z,98414.80
2022-08-17T23:04:00.761Z,98418.37
2022-08-17T23:06:28.375Z,98417.64
2022-08-17T23:08:57.272Z,98422.23
2022-08-17T23:11:36.639Z,98427.59
2022-08-17T23:14:15.427Z,98430.27
2022-08-17T23:16:42.593Z,98428.36
2022-08-17T23:19:15.051Z,98430.09
2022-08-17T23:21:46.091Z,98433.44
2022-08-17T23:24:15.963Z,98435.30
2022-08-17T23:26:43.156Z,98434.35
2022-08-17T23:29:10.104Z,98432.38
2022-08-17T23:31:38.211Z,98432.20
2022-08-17T23:34:09.231Z,98430.73
2022-08-17T23:36:36.467Z,98431.84
2022-08-17T23:39:05.254Z,98437.05
2022-08-17T23:41:35.884Z,98437.36
2022-08-17T23:44:04.062Z,98434.92
2022-08-17T23:46:32.439Z,98441.40
2022-08-17T23:49:00.097Z,98440.77
2022-08-17T23:51:28.458Z,98438.63
2022-08-17T23:54:11.188Z,98441.52
2022-08-17T23:56:57.087Z,98443.61
2022-08-17T23:59:24.232Z,98446.08
